Time;durP1;ratioP1;P1;durP2;ratioP2;P2;SDS_P1;SDS_P2;PMS_P1;PMS_P2;Temp;Humidity;BMP_temperature;BMP_pressure;BME280_temperature;BME280_humidity;BME280_pressure;Samples;Min_cycle;Max_cycle;Signal;HPM_P1;HPM_P2
2021/06/11 00:00:14;;;;;;;3.40;3.00;;;;;;;22.56;46.76;101313.53;701878;28;23514;-64
2021/06/11 00:00:36;;;;;;;3.85;3.00;;;;;;;22.54;47.02;101312.94;700308;28;70419;-64
2021/06/11 00:00:57;;;;;;;3.30;3.00;;;;;;;22.54;46.75;101315.69;698768;28;21512;-64
2021/06/11 00:01:18;;;;;;;3.10;2.88;;;;;;;22.52;46.77;101312.34;698951;28;22479;-64
2021/06/11 00:01:39;;;;;;;4.28;2.90;;;;;;;22.50;46.99;101320.84;699404;28;17639;-64
2021/06/11 00:02:01;;;;;;;3.30;3.00;;;;;;;22.51;46.89;101318.94;699618;28;22488;-64
2021/06/11 00:02:22;;;;;;;3.17;2.97;;;;;;;22.50;47.04;101315.31;698505;28;46368;-64
2021/06/11 00:02:43;;;;;;;4.10;3.00;;;;;;;22.51;47.05;101313.44;699817;28;20852;-64
2021/06/11 00:03:04;;;;;;;3.30;3.00;;;;;;;22.51;47.04;101310.69;702278;28;11852;-64
2021/06/11 00:03:26;;;;;;;2.90;2.78;;;;;;;22.49;47.04;101313.69;702855;28;8418;-64
2021/06/11 00:03:47;;;;;;;3.13;2.92;;;;;;;22.51;46.86;101316.19;702426;28;23511;-64
2021/06/11 00:04:08;;;;;;;3.92;3.53;;;;;;;22.52;47.06;101311.50;702347;28;22410;-64
2021/06/11 00:04:29;;;;;;;3.58;3.28;;;;;;;22.53;47.00;101316.78;702401;28;21689;-64
2021/06/11 00:04:50;;;;;;;3.25;2.95;;;;;;;22.52;47.21;101315.09;701770;28;22291;-64
2021/06/11 00:05:12;;;;;;;3.50;3.00;;;;;;;22.50;47.25;101314.50;702171;28;22398;-64
2021/06/11 00:05:33;;;;;;;3.00;2.80;;;;;;;22.52;47.12;101317.84;701473;28;44539;-64
2021/06/11 00:05:54;;;;;;;3.35;3.15;;;;;;;22.51;47.09;101321.69;702247;28;22414;-64
2021/06/11 00:06:16;;;;;;;3.40;3.10;;;;;;;22.51;47.32;101321.69;702279;28;16170;-64
2021/06/11 00:06:37;;;;;;;3.60;3.30;;;;;;;22.49;47.17;101313.69;698819;28;79623;-64
2021/06/11 00:06:59;;;;;;;3.42;3.20;;;;;;;22.50;47.31;101317.25;700617;28;23257;-64
2021/06/11 00:07:20;;;;;;;3.28;3.08;;;;;;;22.49;47.24;101319.19;700771;28;21523;-64
2021/06/11 00:07:41;;;;;;;3.40;3.10;;;;;;;22.48;47.21;101319.41;700949;28;22474;-64
2021/06/11 00:08:02;;;;;;;3.47;3.13;;;;;;;22.47;47.36;101315.00;701758;28;6522;-64
2021/06/11 00:08:25;;;;;;;3.67;3.10;;;;;;;22.46;47.35;101314.16;701997;28;28944;-64
2021/06/11 00:08:46;;;;;;;3.25;3.05;;;;;;;22.45;47.32;101311.66;700248;28;61454;-64
2021/06/11 00:09:08;;;;;;;3.80;3.40;;;;;;;22.44;47.47;101315.47;701582;28;42133;-64
2021/06/11 00:09:29;;;;;;;4.18;3.20;;;;;;;22.42;47.23;101315.72;700723;28;45062;-64
2021/06/11 00:09:50;;;;;;;3.47;3.10;;;;;;;22.42;47.30;101312.97;698374;28;23489;-64
2021/06/11 00:10:13;;;;;;;3.70;3.40;;;;;;;22.41;47.48;101318.72;698917;28;22464;-64
2021/06/11 00:10:34;;;;;;;3.13;2.95;;;;;;;22.40;47.72;101315.13;696030;28;67297;-64
2021/06/11 00:10:55;;;;;;;3.10;2.80;;;;;;;22.39;47.69;101318.94;697969;28;23309;-64
2021/06/11 00:11:16;;;;;;;3.45;2.90;;;;;;;22.36;47.60;101311.19;697432;28;23448;-64
2021/06/11 00:11:38;;;;;;;3.35;3.10;;;;;;;22.34;47.62;101310.59;698622;28;22391;-64
2021/06/11 00:11:59;;;;;;;3.40;3.10;;;;;;;22.33;47.55;101317.16;700062;28;44345;-64
2021/06/11 00:12:20;;;;;;;3.30;3.10;;;;;;;22.33;47.87;101316.34;700290;28;22406;-64
2021/06/11 00:12:41;;;;;;;3.33;3.10;;;;;;;22.30;47.86;101309.38;702231;28;24312;-64
2021/06/11 00:13:04;;;;;;;3.50;3.10;;;;;;;22.27;47.94;101307.94;701946;28;23540;-64
2021/06/11 00:13:25;;;;;;;3.25;3.05;;;;;;;22.26;47.97;101311.75;701267;28;46357;-64
2021/06/11 00:13:46;;;;;;;3.63;3.10;;;;;;;22.25;48.02;101314.75;701602;28;46397;-64
2021/06/11 00:14:07;;;;;;;3.70;3.03;;;;;;;22.24;47.97;101313.94;701928;28;15962;-64
2021/06/11 00:14:29;;;;;;;3.50;3.20;;;;;;;22.24;48.02;101316.69;702212;28;22960;-64
2021/06/11 00:14:50;;;;;;;3.58;3.30;;;;;;;22.24;48.14;101318.56;701073;28;44336;-64
2021/06/11 00:15:12;;;;;;;3.60;3.30;;;;;;;22.23;48.13;101309.50;702185;28;23425;-64
2021/06/11 00:15:33;;;;;;;3.50;3.20;;;;;;;22.23;47.92;101304.00;702068;28;21547;-64
2021/06/11 00:15:55;;;;;;;3.33;3.13;;;;;;;22.23;48.13;101311.41;702199;28;22390;-64
2021/06/11 00:16:16;;;;;;;3.30;3.00;;;;;;;22.22;47.87;101306.97;701367;28;46419;-64
2021/06/11 00:16:37;;;;;;;3.35;3.05;;;;;;;22.21;48.00;101310.81;702294;28;7061;-64
2021/06/11 00:16:59;;;;;;;3.40;3.10;;;;;;;22.21;48.08;101308.06;702544;28;1040;-64
2021/06/11 00:17:20;;;;;;;4.05;3.20;;;;;;;22.18;48.00;101303.88;702520;28;7959;-64
2021/06/11 00:17:41;;;;;;;4.00;3.40;;;;;;;22.17;47.93;101313.22;701147;28;21451;-64
2021/06/11 00:18:03;;;;;;;3.42;3.22;;;;;;;22.16;48.01;101306.03;700727;28;44411;-64
2021/06/11 00:18:25;;;;;;;3.80;3.28;;;;;;;22.14;48.09;101306.25;699507;28;1339;-64
2021/06/11 00:18:46;;;;;;;3.80;3.22;;;;;;;22.12;48.32;101308.44;699141;28;23500;-64
2021/06/11 00:19:08;;;;;;;3.33;3.13;;;;;;;22.11;48.13;101308.66;699802;28;14779;-64
2021/06/11 00:19:29;;;;;;;3.47;3.28;;;;;;;22.11;48.16;101312.25;697653;28;46309;-64
2021/06/11 00:19:50;;;;;;;3.05;2.85;;;;;;;22.10;48.16;101305.09;698925;28;22355;-64
2021/06/11 00:20:11;;;;;;;3.50;3.20;;;;;;;22.10;48.24;101307.84;699826;28;23490;-64
2021/06/11 00:20:33;;;;;;;3.45;3.15;;;;;;;22.09;48.25;101305.31;702178;28;21258;-64
2021/06/11 00:20:55;;;;;;;3.20;2.90;;;;;;;22.08;48.46;101306.41;701399;28;46327;-64
2021/06/11 00:21:17;;;;;;;4.70;3.15;;;;;;;22.06;48.42;101308.56;701856;28;27893;-64
2021/06/11 00:21:38;;;;;;;3.40;3.20;;;;;;;22.05;48.36;101313.22;701288;28;47350;-64
2021/06/11 00:22:00;;;;;;;3.80;3.50;;;;;;;22.04;48.23;101310.72;702291;28;23417;-64
2021/06/11 00:22:22;;;;;;;4.10;3.40;;;;;;;22.02;48.24;101304.59;701365;28;45258;-64
2021/06/11 00:22:43;;;;;;;3.63;3.13;;;;;;;22.03;48.42;101306.28;700925;28;46191;-64
2021/06/11 00:23:05;;;;;;;3.17;2.97;;;;;;;22.03;48.44;101312.63;701844;28;23473;-64
2021/06/11 00:23:26;;;;;;;3.75;3.45;;;;;;;22.01;48.81;101306.53;702945;28;3723;-64
2021/06/11 00:23:47;;;;;;;3.83;3.20;;;;;;;22.01;48.76;101301.03;702978;28;854;-64
2021/06/11 00:24:08;;;;;;;4.85;3.10;;;;;;;22.01;48.50;101306.53;702247;28;22420;-64
2021/06/11 00:24:30;;;;;;;5.50;3.30;;;;;;;22.00;48.65;101307.59;701640;28;14889;-64
2021/06/11 00:24:51;;;;;;;3.70;3.20;;;;;;;22.01;48.51;101306.53;701817;28;22422;-64
2021/06/11 00:25:15;;;;;;;3.75;2.95;;;;;;;22.00;48.71;101302.09;702401;28;23511;-64
2021/06/11 00:25:36;;;;;;;3.50;2.90;;;;;;;22.01;48.92;101306.53;700037;28;90328;-64
2021/06/11 00:25:57;;;;;;;2.97;2.77;;;;;;;22.01;48.75;101306.53;701286;28;46381;-64
2021/06/11 00:26:18;;;;;;;3.33;3.13;;;;;;;22.03;48.73;101311.78;701561;28;39725;-64
2021/06/11 00:26:39;;;;;;;4.23;3.13;;;;;;;22.03;48.62;101309.03;701700;28;24869;-64
2021/06/11 00:27:00;;;;;;;4.60;3.07;;;;;;;22.06;48.64;101305.81;701437;28;46516;-64
2021/06/11 00:27:21;;;;;;;3.30;3.03;;;;;;;22.05;48.54;101307.72;698214;28;46382;-64
2021/06/11 00:27:43;;;;;;;4.53;3.25;;;;;;;22.07;48.66;101316.56;698376;28;46372;-64
2021/06/11 00:28:05;;;;;;;3.60;3.25;;;;;;;;;;698873;28;22199;-64
2021/06/11 00:28:25;;;;;;;3.03;2.85;;;;;;;22.06;48.88;101311.31;698556;28;44185;-64
2021/06/11 00:28:46;;;;;;;3.10;2.90;;;;;;;22.05;48.78;101306.88;699282;28;22416;-64
2021/06/11 00:29:08;;;;;;;3.35;3.08;;;;;;;22.07;48.68;101313.81;699937;28;21247;-64
2021/06/11 00:29:29;;;;;;;3.67;3.25;;;;;;;22.05;48.64;101304.97;701693;28;22414;-64
2021/06/11 00:29:50;;;;;;;3.20;3.00;;;;;;;22.08;48.53;101309.16;701814;28;22397;-64
2021/06/11 00:30:12;;;;;;;3.33;3.13;;;;;;;22.07;48.59;101312.97;701983;28;22424;-64
2021/06/11 00:30:34;;;;;;;3.20;3.00;;;;;;;22.07;48.52;101312.97;702331;28;19821;-64
2021/06/11 00:30:55;;;;;;;3.60;3.30;;;;;;;22.08;48.44;101311.91;701377;28;46328;-64
2021/06/11 00:31:16;;;;;;;3.35;3.05;;;;;;;22.07;48.61;101312.97;701644;28;23746;-64
2021/06/11 00:31:37;;;;;;;2.90;2.70;;;;;;;22.05;48.50;101309.63;701657;28;15592;-64
2021/06/11 00:31:58;;;;;;;3.40;3.10;;;;;;;22.07;48.58;101311.06;701055;28;20045;-64
2021/06/11 00:32:19;;;;;;;3.70;3.40;;;;;;;22.05;48.60;101306.88;700980;28;13557;-64
2021/06/11 00:32:40;;;;;;;3.45;3.25;;;;;;;;;;700946;28;22331;-64
2021/06/11 00:33:01;;;;;;;3.20;3.00;;;;;;;22.05;48.73;101304.97;701443;28;1709;-64
2021/06/11 00:33:22;;;;;;;3.38;3.08;;;;;;;22.05;48.51;101312.38;701299;28;22437;-64
2021/06/11 00:33:44;;;;;;;3.22;3.03;;;;;;;22.05;48.45;101304.97;699667;28;8294;-64
2021/06/11 00:34:05;;;;;;;3.15;2.95;;;;;;;22.05;48.60;101306.88;700122;28;914;-64
2021/06/11 00:34:26;;;;;;;3.65;3.35;;;;;;;22.05;48.64;101312.38;696345;28;22137;-64
2021/06/11 00:34:47;;;;;;;3.60;3.30;;;;;;;22.05;48.68;101309.63;695461;28;45261;-64
2021/06/11 00:35:09;;;;;;;3.22;2.95;;;;;;;;;;694232;28;5024;-64
2021/06/11 00:35:30;;;;;;;3.30;3.10;;;;;;;22.04;48.68;101306.03;693496;28;45273;-64
2021/06/11 00:35:52;;;;;;;3.67;3.43;;;;;;;22.04;48.58;101313.47;695726;28;46378;-64
2021/06/11 00:36:13;;;;;;;3.88;3.13;;;;;;;22.04;48.75;101310.72;696195;28;44444;-64
2021/06/11 00:36:41;;;;;;;3.55;3.25;;;;;;;22.04;48.86;101319.78;697374;28;61898;-64
2021/06/11 00:37:03;;;;;;;3.30;3.10;;;;;;;22.03;49.03;101312.63;695296;28;69502;-64
2021/06/11 00:37:24;;;;;;;3.20;3.00;;;;;;;22.03;49.04;101307.13;695733;28;70467;-64
2021/06/11 00:37:45;;;;;;;3.40;3.20;;;;;;;22.05;48.88;101312.38;697779;28;45943;-64
2021/06/11 00:38:08;;;;;;;3.13;2.93;;;;;;;22.04;49.00;101314.31;698581;28;46335;-64
2021/06/11 00:38:31;;;;;;;3.22;3.03;;;;;;;22.03;48.86;101312.63;697519;28;67651;-64
2021/06/11 00:38:52;;;;;;;3.65;3.20;;;;;;;22.04;49.00;101313.47;697762;28;69797;-64
2021/06/11 00:39:13;;;;;;;3.70;3.20;;;;;;;22.04;48.92;101310.72;702777;28;3950;-64
2021/06/11 00:39:34;;;;;;;3.20;3.00;;;;;;;22.03;49.00;101309.03;701670;28;19020;-64
2021/06/11 00:39:55;;;;;;;3.30;3.00;;;;;;;22.03;48.97;101309.88;702216;28;15652;-64
2021/06/11 00:40:17;;;;;;;4.75;3.00;;;;;;;22.03;48.95;101311.78;701295;28;15226;-64
2021/06/11 00:40:39;;;;;;;3.20;3.00;;;;;;;22.02;48.96;101310.09;700870;28;40456;-64
2021/06/11 00:41:00;;;;;;;3.70;3.35;;;;;;;22.01;48.97;101312.03;701555;28;40497;-64
2021/06/11 00:41:22;;;;;;;4.43;3.13;;;;;;;22.01;49.05;101308.44;701656;28;23471;-64
2021/06/11 00:41:43;;;;;;;4.10;3.00;;;;;;;22.00;48.96;101320.50;701666;28;37425;-64
2021/06/11 00:42:05;;;;;;;3.63;3.28;;;;;;;21.99;49.07;101314.19;702351;28;17266;-64
2021/06/11 00:42:27;;;;;;;3.70;3.40;;;;;;;21.98;49.09;101317.19;698792;28;39964;-64
2021/06/11 00:42:48;;;;;;;3.37;3.07;;;;;;;21.97;49.07;101308.06;698513;28;44132;-64
2021/06/11 00:43:12;;;;;;;3.20;3.00;;;;;;;21.96;49.31;101312.75;698196;28;44408;-64
2021/06/11 00:43:33;;;;;;;3.50;3.30;;;;;;;21.97;49.04;101316.31;697750;28;69868;-64
2021/06/11 00:43:54;;;;;;;3.47;3.17;;;;;;;21.96;49.15;101314.66;698143;28;5097;-64
2021/06/11 00:44:15;;;;;;;3.53;3.22;;;;;;;21.95;49.21;101312.97;698455;28;16584;-64
2021/06/11 00:44:36;;;;;;;3.60;3.40;;;;;;;21.94;49.29;101314.91;700681;28;46612;-64
2021/06/11 00:44:57;;;;;;;4.60;3.28;;;;;;;21.94;49.23;101314.91;701843;28;21212;-64
2021/06/11 00:45:19;;;;;;;3.42;3.20;;;;;;;21.93;49.38;101309.66;702286;28;14132;-64
2021/06/11 00:45:41;;;;;;;3.80;3.05;;;;;;;21.91;49.35;101307.13;703122;28;874;-64
2021/06/11 00:46:02;;;;;;;4.07;3.17;;;;;;;21.89;49.51;101311.19;701338;28;45277;-64
2021/06/11 00:46:23;;;;;;;4.15;3.20;;;;;;;21.89;49.62;101306.50;701342;28;16648;-64
2021/06/11 00:46:44;;;;;;;3.30;3.00;;;;;;;21.90;49.67;101318.38;702013;28;23695;-64
2021/06/11 00:47:06;;;;;;;3.30;3.10;;;;;;;21.89;49.48;101309.25;701550;28;2910;-64
2021/06/11 00:47:27;;;;;;;3.50;3.25;;;;;;;21.88;49.66;101304.84;702316;28;21783;-64
2021/06/11 00:47:48;;;;;;;4.95;3.85;;;;;;;21.86;49.33;101307.00;701726;28;1208;-64
2021/06/11 00:48:11;;;;;;;4.85;3.80;;;;;;;21.87;49.56;101305.09;701769;28;22395;-64
2021/06/11 00:48:32;;;;;;;3.30;3.10;;;;;;;21.85;49.63;101305.34;699976;28;46160;-63
2021/06/11 00:48:53;;;;;;;3.25;3.03;;;;;;;21.83;49.42;101306.63;702249;28;23456;-64
2021/06/11 00:49:14;;;;;;;3.30;3.10;;;;;;;21.82;49.56;101304.94;702057;28;23767;-64
2021/06/11 00:49:35;;;;;;;4.03;3.30;;;;;;;21.82;49.58;101304.94;701426;28;21241;-64
2021/06/11 00:49:57;;;;;;;3.80;3.15;;;;;;;21.81;49.64;101311.56;702001;28;22472;-64
2021/06/11 00:50:21;;;;;;;3.60;3.30;;;;;;;21.78;49.85;101305.44;700457;28;41434;-64
2021/06/11 00:50:42;;;;;;;3.63;3.40;;;;;;;21.78;49.81;101307.34;700105;28;85317;-64
2021/06/11 00:51:03;;;;;;;4.82;3.40;;;;;;;21.76;49.79;101307.59;702138;28;23571;-64
2021/06/11 00:51:25;;;;;;;3.85;3.28;;;;;;;21.75;49.57;101305.06;701116;28;12811;-64
2021/06/11 00:51:47;;;;;;;3.75;3.45;;;;;;;21.74;49.88;101307.00;702143;28;22423;-64
2021/06/11 00:52:08;;;;;;;4.00;3.25;;;;;;;21.73;49.84;101310.00;699106;28;69720;-64
2021/06/11 00:52:31;;;;;;;5.20;3.40;;;;;;;21.71;49.89;101298.41;698370;28;22334;-64
2021/06/11 00:52:53;;;;;;;3.85;3.45;;;;;;;21.71;49.86;101301.16;696632;28;70081;-64
2021/06/11 00:53:16;;;;;;;3.60;3.33;;;;;;;21.70;49.89;101304.97;697768;28;45275;-64
2021/06/11 00:53:37;;;;;;;3.53;3.17;;;;;;;21.69;50.09;101301.38;697097;28;69415;-64
2021/06/11 00:53:58;;;;;;;5.32;3.60;;;;;;;21.69;50.01;101295.03;698392;28;24348;-64
2021/06/11 00:54:20;;;;;;;4.10;3.70;;;;;;;21.68;50.12;101305.19;696212;28;22420;-64
2021/06/11 00:54:41;;;;;;;3.70;3.40;;;;;;;21.69;50.04;101304.13;694951;28;45277;-64
2021/06/11 00:55:03;;;;;;;3.80;3.50;;;;;;;21.69;50.12;101300.53;696400;28;21539;-64
2021/06/11 00:55:24;;;;;;;3.60;3.30;;;;;;;21.69;50.15;101304.13;696100;28;12248;-63
2021/06/11 00:55:46;;;;;;;3.70;3.40;;;;;;;21.68;50.08;101299.69;697719;28;22406;-64
2021/06/11 00:56:07;;;;;;;3.80;3.50;;;;;;;21.68;50.09;101301.63;699506;28;22405;-64
2021/06/11 00:56:28;;;;;;;3.30;3.10;;;;;;;21.68;50.06;101296.13;700617;28;20891;-64
2021/06/11 00:56:49;;;;;;;3.25;2.97;;;;;;;21.67;49.94;101297.19;701188;28;46350;-64
2021/06/11 00:57:11;;;;;;;3.50;3.20;;;;;;;21.67;50.02;101294.44;701984;28;22477;-64
2021/06/11 00:57:32;;;;;;;3.20;3.00;;;;;;;21.67;50.06;101306.25;702013;27;21591;-64
2021/06/11 00:57:54;;;;;;;3.40;3.20;;;;;;;21.67;50.17;101299.94;702178;28;23505;-64
2021/06/11 00:58:16;;;;;;;3.95;3.30;;;;;;;21.66;50.15;101295.50;701637;28;40024;-64
2021/06/11 00:58:37;;;;;;;3.50;3.30;;;;;;;21.65;50.11;101297.44;701331;28;45253;-64
2021/06/11 00:58:59;;;;;;;3.30;3.10;;;;;;;21.63;50.00;101290.47;700867;28;23571;-64
2021/06/11 00:59:20;;;;;;;3.72;3.50;;;;;;;21.63;50.19;101295.97;700736;28;38112;-64
2021/06/11 00:59:42;;;;;;;3.65;3.35;;;;;;;21.63;50.09;101301.47;701885;28;22423;-64
2021/06/11 01:00:05;;;;;;;3.50;3.30;;;;;;;21.61;50.14;101298.97;700510;28;69435;-64
2021/06/11 01:00:27;;;;;;;3.40;3.20;;;;;;;21.60;50.29;101300.88;700417;28;69434;-64
2021/06/11 01:00:48;;;;;;;3.20;3.00;;;;;;;21.60;50.28;101298.13;701368;28;46428;-64
2021/06/11 01:01:09;;;;;;;3.35;3.05;;;;;;;21.59;50.38;101299.19;698801;28;23530;-64
2021/06/11 01:01:30;;;;;;;3.60;3.30;;;;;;;21.58;50.45;101303.03;698475;28;23674;-64
2021/06/11 01:01:52;;;;;;;3.55;3.25;;;;;;;21.57;50.63;101298.63;699485;28;21543;-64
2021/06/11 01:02:15;;;;;;;3.72;3.38;;;;;;;21.57;50.42;101303.28;699020;28;23709;-64
2021/06/11 01:02:36;;;;;;;3.65;3.35;;;;;;;21.56;50.55;101302.41;693608;28;90425;-64
2021/06/11 01:02:57;;;;;;;3.55;3.25;;;;;;;21.56;50.35;101296.94;696009;28;47205;-64
2021/06/11 01:03:18;;;;;;;3.45;3.15;;;;;;;21.55;50.74;101298.03;698940;28;22382;-64
2021/06/11 01:03:39;;;;;;;3.80;3.17;;;;;;;21.54;50.66;101298.25;698629;28;22499;-64
2021/06/11 01:04:01;;;;;;;3.35;3.15;;;;;;;21.54;50.80;101299.09;699497;28;1200;-64
2021/06/11 01:04:22;;;;;;;3.65;3.20;;;;;;;21.55;50.83;101297.16;696380;28;23536;-64
2021/06/11 01:04:43;;;;;;;3.50;3.20;;;;;;;21.55;50.72;101300.78;699153;28;12864;-64
2021/06/11 01:05:05;;;;;;;3.78;3.38;;;;;;;21.54;50.70;101299.09;698413;28;47215;-64
2021/06/11 01:05:26;;;;;;;3.53;3.33;;;;;;;21.53;50.75;101300.16;697077;28;47188;-64
2021/06/11 01:05:48;;;;;;;3.38;3.13;;;;;;;21.53;51.00;101296.56;699279;28;23453;-64
2021/06/11 01:06:10;;;;;;;3.67;3.35;;;;;;;21.53;50.87;101294.66;699961;28;23557;-64
2021/06/11 01:06:31;;;;;;;3.63;3.33;;;;;;;21.53;50.87;101296.56;701086;28;26370;-64
2021/06/11 01:06:56;;;;;;;3.35;3.15;;;;;;;21.53;50.68;101302.91;702683;28;14924;-64
2021/06/11 01:07:17;;;;;;;3.60;3.30;;;;;;;21.52;50.76;101298.50;701325;28;972;-64
2021/06/11 01:07:41;;;;;;;3.53;3.22;;;;;;;21.52;50.57;101298.50;699886;28;46295;-64
2021/06/11 01:08:03;;;;;;;3.70;3.28;;;;;;;21.52;50.76;101301.25;699595;28;85303;-64
2021/06/11 01:08:25;;;;;;;3.58;3.20;;;;;;;21.53;50.82;101299.31;701709;28;33779;-64
2021/06/11 01:08:46;;;;;;;3.58;3.38;;;;;;;21.52;50.91;101306.75;702906;28;913;-64
2021/06/11 01:09:08;;;;;;;4.38;3.42;;;;;;;21.53;50.89;101299.31;697758;28;44376;-64
2021/06/11 01:09:39;;;;;;;3.60;3.40;;;;;;;21.53;50.73;101297.41;697556;28;61604;-64
2021/06/11 01:10:00;;;;;;;3.60;3.30;;;;;;;21.54;50.76;101307.31;698562;28;41268;-63
2021/06/11 01:10:22;;;;;;;3.63;3.35;;;;;;;21.53;50.90;101296.56;699156;28;20971;-64
2021/06/11 01:10:44;;;;;;;3.70;3.45;;;;;;;21.55;50.70;101306.28;698688;28;41848;-64
2021/06/11 01:11:06;;;;;;;3.40;3.20;;;;;;;21.55;50.68;101305.41;699951;28;68828;-64
2021/06/11 01:11:27;;;;;;;3.67;3.40;;;;;;;21.55;50.74;101302.66;700958;28;46331;-64
2021/06/11 01:11:48;;;;;;;3.60;3.30;;;;;;;21.56;50.54;101304.34;702140;28;21515;-64
2021/06/11 01:12:10;;;;;;;3.80;3.50;;;;;;;21.55;50.87;101299.91;702145;28;21542;-64
2021/06/11 01:12:32;;;;;;;3.53;3.25;;;;;;;21.53;50.76;101300.16;700591;28;44383;-64
2021/06/11 01:12:55;;;;;;;3.58;3.28;;;;;;;21.52;50.95;101295.75;701275;28;45234;-64
2021/06/11 01:13:17;;;;;;;3.67;3.38;;;;;;;21.53;50.76;101302.06;700440;28;65926;-64
2021/06/11 01:13:39;;;;;;;3.53;3.28;;;;;;;21.51;50.83;101302.31;701260;28;45296;-64
2021/06/11 01:14:00;;;;;;;3.60;3.30;;;;;;;21.52;50.67;101294.88;701537;28;40344;-64
2021/06/11 01:14:21;;;;;;;3.90;3.60;;;;;;;21.51;50.69;101291.31;702132;28;23477;-64
2021/06/11 01:14:43;;;;;;;3.60;3.40;;;;;;;21.49;50.79;101298.09;702497;28;1477;-64
2021/06/11 01:15:06;;;;;;;3.30;3.10;;;;;;;21.50;50.95;101300.63;702155;28;22235;-64
2021/06/11 01:15:27;;;;;;;3.80;3.50;;;;;;;21.49;50.78;101300.84;700476;28;68985;-64
2021/06/11 01:15:50;;;;;;;3.80;3.50;;;;;;;21.46;50.92;101296.66;701265;28;46330;-64
2021/06/11 01:16:12;;;;;;;3.45;3.22;;;;;;;21.45;50.77;101294.16;702356;28;17866;-64
2021/06/11 01:16:33;;;;;;;3.70;3.40;;;;;;;21.45;50.80;101294.16;701444;28;23536;-64
2021/06/11 01:16:54;;;;;;;3.70;3.40;;;;;;;21.43;51.27;101299.88;702578;28;23411;-64
2021/06/11 01:17:16;;;;;;;4.15;3.42;;;;;;;21.44;50.97;101304.28;701098;28;47391;-64
2021/06/11 01:17:37;;;;;;;3.65;3.35;;;;;;;21.43;51.23;101294.38;701995;28;23423;-64
2021/06/11 01:17:58;;;;;;;3.45;3.20;;;;;;;21.43;51.13;101299.88;701136;28;19604;-64
2021/06/11 01:18:20;;;;;;;3.47;3.22;;;;;;;21.42;51.09;101293.53;701622;28;23527;-64
2021/06/11 01:18:41;;;;;;;3.53;3.28;;;;;;;21.43;51.01;101300.69;699984;28;47326;-64
2021/06/11 01:19:03;;;;;;;4.47;3.50;;;;;;;21.43;50.97;101297.97;701422;28;44396;-64
2021/06/11 01:19:29;;;;;;;3.67;3.38;;;;;;;21.43;51.01;101300.69;700649;28;43996;-64
2021/06/11 01:19:50;;;;;;;3.20;3.00;;;;;;;21.44;51.20;101298.78;697737;28;138763;-64
2021/06/11 01:20:13;;;;;;;3.30;3.10;;;;;;;21.44;51.09;101298.78;701867;28;21529;-64
2021/06/11 01:20:35;;;;;;;3.67;3.38;;;;;;;21.43;51.21;101300.69;700389;28;70224;-64
2021/06/11 01:20:57;;;;;;;3.63;3.33;;;;;;;21.42;51.18;101301.75;702901;28;1960;-64
2021/06/11 01:21:20;;;;;;;3.25;3.05;;;;;;;21.42;51.20;101298.19;702554;28;1961;-64
2021/06/11 01:21:46;;;;;;;3.40;3.20;;;;;;;21.41;51.14;101299.25;702465;28;15028;-64
2021/06/11 01:22:13;;;;;;;3.60;3.30;;;;;;;21.37;51.33;101298.91;698436;28;129977;-64
2021/06/11 01:22:45;;;;;;;3.50;3.20;;;;;;;21.39;51.17;101301.41;697441;28;139616;-64
2021/06/11 01:23:34;;;;;;;3.60;3.30;;;;;;;21.38;51.31;101297.00;697133;28;158030;-64
2021/06/11 01:24:11;;;;;;;3.53;3.22;;;;;;;21.37;51.00;101304.41;698707;28;124395;-64
2021/06/11 01:24:34;;;;;;;3.70;3.40;;;;;;;21.36;51.30;101302.75;697976;28;138051;-64
2021/06/11 01:25:00;;;;;;;3.75;3.38;;;;;;;21.36;51.09;101302.75;700029;28;90267;-64
2021/06/11 01:25:28;;;;;;;3.42;3.15;;;;;;;21.35;51.13;101297.47;697295;28;138134;-64
2021/06/11 01:25:53;;;;;;;3.70;3.40;;;;;;;21.35;51.38;101301.06;696747;28;139063;-64
2021/06/11 01:26:28;;;;;;;3.70;3.38;;;;;;;21.35;51.42;101300.22;698662;28;116134;-64
2021/06/11 01:26:50;;;;;;;3.75;3.42;;;;;;;21.34;51.75;101301.28;695218;28;158195;-64
2021/06/11 01:27:11;;;;;;;5.88;3.70;;;;;;;21.34;51.20;101295.78;699082;28;46206;-64
2021/06/11 01:27:33;;;;;;;4.20;3.40;;;;;;;21.34;51.32;101302.13;700179;28;24340;-64
2021/06/11 01:27:54;;;;;;;3.50;3.30;;;;;;;21.34;51.48;101302.13;699667;28;46460;-64
2021/06/11 01:28:16;;;;;;;3.63;3.42;;;;;;;21.34;51.42;101304.88;700718;28;16120;-64
2021/06/11 01:28:38;;;;;;;3.63;3.42;;;;;;;21.32;51.61;101304.28;700836;28;20638;-64
2021/06/11 01:29:01;;;;;;;3.70;3.40;;;;;;;21.33;51.47;101302.34;700780;28;42123;-64
2021/06/11 01:29:24;;;;;;;3.80;3.50;;;;;;;21.31;51.52;101299.84;698747;28;93077;-64
2021/06/11 01:29:52;;;;;;;3.50;3.30;;;;;;;21.31;51.46;101299.84;700039;28;61719;-64
2021/06/11 01:30:18;;;;;;;3.20;3.00;;;;;;;21.30;51.48;101298.19;699300;28;89764;-64
2021/06/11 01:30:40;;;;;;;3.30;3.10;;;;;;;21.31;51.70;101299.84;697952;28;138116;-64
2021/06/11 01:31:01;;;;;;;3.80;3.53;;;;;;;21.32;51.44;101297.94;701593;28;36737;-64
2021/06/11 01:31:23;;;;;;;3.70;3.40;;;;;;;21.31;51.56;101301.75;702434;28;1813;-64
2021/06/11 01:31:46;;;;;;;3.42;3.20;;;;;;;21.30;51.60;101306.44;701419;28;42227;-64
2021/06/11 01:32:07;;;;;;;3.35;3.15;;;;;;;21.31;51.60;101297.09;700598;28;70426;-64
2021/06/11 01:32:29;;;;;;;3.50;3.30;;;;;;;21.30;51.48;101297.31;702116;28;14263;-64
2021/06/11 01:32:52;;;;;;;3.50;3.30;;;;;;;21.30;51.46;101300.06;701383;28;39433;-64
2021/06/11 01:33:14;;;;;;;3.40;3.20;;;;;;;21.29;51.63;101295.66;699979;28;69537;-64
2021/06/11 01:33:36;;;;;;;3.60;3.40;;;;;;;21.30;51.82;101300.06;698521;28;21224;-64
2021/06/11 01:34:01;;;;;;;3.72;3.45;;;;;;;21.28;51.75;101296.72;697750;28;58685;-64
2021/06/11 01:34:33;;;;;;;4.22;3.60;;;;;;;21.29;51.83;101301.16;696270;28;113659;-64
2021/06/11 01:34:54;;;;;;;3.40;3.20;;;;;;;21.29;51.89;101292.94;694985;28;137313;-64
2021/06/11 01:35:19;;;;;;;3.40;3.20;;;;;;;21.30;51.79;101297.31;699078;28;22334;-64
2021/06/11 01:35:42;;;;;;;3.50;3.20;;;;;;;21.29;51.76;101295.66;699048;28;88019;-64
2021/06/11 01:36:07;;;;;;;3.60;3.30;;;;;;;21.30;51.96;101298.19;698955;28;93309;-64
2021/06/11 01:36:34;;;;;;;3.70;3.38;;;;;;;21.31;51.87;101296.25;699463;28;86312;-64
2021/06/11 01:36:57;;;;;;;3.40;3.20;;;;;;;21.30;52.08;101295.44;697275;28;157037;-64
2021/06/11 01:37:20;;;;;;;4.57;3.50;;;;;;;21.31;51.87;101288.84;699134;28;68446;-64
2021/06/11 01:37:41;;;;;;;3.70;3.40;;;;;;;21.32;51.89;101297.94;700724;28;67513;-64
2021/06/11 01:38:03;;;;;;;4.03;3.45;;;;;;;21.33;51.92;101296.84;700941;28;46299;-64
2021/06/11 01:38:27;;;;;;;4.45;3.50;;;;;;;21.34;51.93;101298.53;702770;28;890;-64
2021/06/11 01:38:50;;;;;;;3.83;3.53;;;;;;;21.33;51.93;101291.34;701621;28;38104;-64
2021/06/11 01:39:14;;;;;;;3.95;3.65;;;;;;;21.34;51.63;101293.88;702570;28;974;-64
2021/06/11 01:39:37;;;;;;;3.70;3.40;;;;;;;21.34;51.77;101298.53;701530;28;15008;-64
2021/06/11 01:40:04;;;;;;;3.47;3.17;;;;;;;21.31;51.82;101291.59;700012;28;69318;-64
2021/06/11 01:40:25;;;;;;;3.33;3.13;;;;;;;21.32;51.86;101290.53;695322;28;134389;-64
2021/06/11 01:40:47;;;;;;;3.97;3.33;;;;;;;21.31;52.13;101293.50;699119;28;22474;-64
2021/06/11 01:41:10;;;;;;;4.43;3.47;;;;;;;21.31;51.87;101297.09;698194;28;45262;-64
2021/06/11 01:41:33;;;;;;;3.70;3.40;;;;;;;21.30;51.96;101286.34;697319;28;68868;-64
2021/06/11 01:41:56;;;;;;;3.40;3.20;;;;;;;21.29;51.89;101284.69;697405;28;65450;-64
2021/06/11 01:42:17;;;;;;;3.85;3.42;;;;;;;21.29;52.04;101292.94;698608;28;69328;-64
2021/06/11 01:42:41;;;;;;;3.63;3.33;;;;;;;21.29;51.76;101285.50;701959;28;23445;-64
2021/06/11 01:43:02;;;;;;;3.83;3.53;;;;;;;21.30;51.91;101292.69;698389;28;92092;-64
2021/06/11 01:43:25;;;;;;;3.65;3.42;;;;;;;21.30;51.81;101291.84;701415;28;46317;-64
2021/06/11 01:43:48;;;;;;;3.47;3.22;;;;;;;21.30;52.00;101291.84;700578;28;69600;-64
2021/06/11 01:44:11;;;;;;;3.53;3.30;;;;;;;21.29;51.82;101290.19;700464;28;67404;-64
2021/06/11 01:44:33;;;;;;;3.60;3.30;;;;;;;21.29;51.85;101295.66;700441;28;70693;-64
2021/06/11 01:44:55;;;;;;;3.85;3.50;;;;;;;21.29;51.77;101287.44;700680;28;47093;-64